Time;durP1;ratioP1;P1;durP2;ratioP2;P2;SDS_P1;SDS_P2;PMS_P1;PMS_P2;Temp;Humidity;BMP_temperature;BMP_pressure;BME280_temperature;BME280_humidity;BME280_pressure;Samples;Min_cycle;Max_cycle;Signal;HPM_P1;HPM_P2
2022/01/28 00:04:50;;;;;;;38.85;19.13;;;;;;;-2.06;67.71;100694.16;5088320;28;20040;-21
2022/01/28 00:07:16;;;;;;;42.35;19.08;;;;;;;-3.10;69.89;100686.56;5070168;28;20103;-21
2022/01/28 00:09:41;;;;;;;36.13;18.65;;;;;;;-2.79;69.28;100686.84;5086639;28;20513;-21
2022/01/28 00:12:08;;;;;;;42.47;21.05;;;;;;;-2.38;68.60;100661.91;5087660;28;20027;-22
2022/01/28 00:14:43;;;;;;;41.00;19.90;;;;;;;-2.51;68.40;100688.16;5086716;28;20036;-23
2022/01/28 00:17:46;;;;;;;39.60;19.85;;;;;;;-2.34;69.00;100679.00;5088158;28;20035;-22
2022/01/28 00:39:09;;;;;;;40.80;21.20;;;;;;;-2.71;68.68;100660.97;5087661;28;20036;-21
2022/01/28 00:41:34;;;;;;;42.15;21.25;;;;;;;-2.37;67.51;100656.56;5069281;28;20043;-23
2022/01/28 00:44:00;;;;;;;40.08;19.58;;;;;;;-2.46;68.08;100663.31;5087269;28;20028;-22
2022/01/28 00:46:25;;;;;;;38.15;20.27;;;;;;;-2.37;67.64;100667.03;5087899;28;20032;-21
2022/01/28 00:48:51;;;;;;;43.58;24.17;;;;;;;-2.46;68.95;100660.72;5087652;28;20028;-21
2022/01/28 00:51:16;;;;;;;48.55;23.13;;;;;;;-2.22;67.87;100641.47;5087768;28;20377;-22
2022/01/28 00:53:41;;;;;;;46.55;25.30;;;;;;;-1.75;66.25;100657.72;5086050;28;20024;-21
2022/01/28 00:56:07;;;;;;;52.15;27.13;;;;;;;-1.80;66.82;100652.03;5087682;28;20043;-22
2022/01/28 00:58:33;;;;;;;59.00;30.13;;;;;;;-1.81;66.77;100639.91;5087252;28;20039;-22
2022/01/28 01:00:58;;;;;;;57.78;30.25;;;;;;;-2.19;67.11;100609.84;5087596;28;20404;-22
2022/01/28 01:03:23;;;;;;;48.60;26.00;;;;;;;-2.00;67.06;100624.91;5087616;28;20036;-21
2022/01/28 01:05:49;;;;;;;50.78;25.92;;;;;;;-2.20;67.10;100621.28;5087390;28;20704;-22
2022/01/28 01:08:14;;;;;;;46.78;24.88;;;;;;;-2.39;68.32;100610.59;5087575;28;20036;-21
2022/01/28 01:10:40;;;;;;;42.63;23.40;;;;;;;-2.07;67.68;100627.16;5087206;28;20078;-22
2022/01/28 01:13:06;;;;;;;47.22;23.10;;;;;;;-2.34;69.57;100603.25;5087289;28;20093;-22
2022/01/28 01:15:33;;;;;;;45.78;24.52;;;;;;;-2.17;69.07;100617.56;5087485;28;20035;-21
2022/01/28 01:23:35;;;;;;;191.63;86.47;;;;;;;-1.59;66.70;100612.84;5087729;28;20039;-21
2022/01/28 01:25:54;;;;;;;54.88;27.45;;;;;;;-1.90;66.57;100590.97;5081239;28;20055;-22
2022/01/28 01:28:22;;;;;;;63.38;31.75;;;;;;;-1.97;67.23;100582.81;5087710;28;20024;-22
2022/01/28 01:30:47;;;;;;;44.58;23.33;;;;;;;-2.00;67.25;100587.47;5087388;28;20028;-22
2022/01/28 01:33:15;;;;;;;46.67;24.67;;;;;;;-2.18;67.80;100580.16;5087575;28;20044;-21
2022/01/28 01:35:40;;;;;;;48.55;23.27;;;;;;;-2.02;67.68;100595.44;5087356;28;20032;-23
2022/01/28 01:38:07;;;;;;;57.25;28.15;;;;;;;-2.25;67.33;100585.06;5087707;28;20039;-21
2022/01/28 01:40:41;;;;;;;61.05;31.30;;;;;;;-3.07;69.79;100566.28;5089644;28;20035;-22
2022/01/28 01:53:59;;;;;;;50.20;24.38;;;;;;;-3.11;71.41;100554.44;5090662;28;20105;-21
2022/01/28 01:56:24;;;;;;;48.38;27.05;;;;;;;-3.18;71.56;100553.25;5090385;28;20173;-21
2022/01/28 01:58:50;;;;;;;49.38;24.77;;;;;;;-3.39;72.19;100548.72;5089058;28;20454;-21
2022/01/28 02:01:15;;;;;;;52.58;24.92;;;;;;;-3.55;72.25;100543.03;5089155;28;20032;-22
2022/01/28 02:03:40;;;;;;;55.80;27.30;;;;;;;-3.28;71.54;100542.69;5090478;28;20682;-22
2022/01/28 02:06:06;;;;;;;65.80;38.75;;;;;;;-3.17;71.28;100547.06;5088793;28;20545;-22
2022/01/28 02:08:32;;;;;;;59.15;30.90;;;;;;;-3.12;70.78;100548.38;5090282;28;20384;-22
2022/01/28 02:10:59;;;;;;;50.42;24.17;;;;;;;-3.75;71.63;100545.34;5090271;28;20486;-21
2022/01/28 02:13:29;;;;;;;65.50;31.17;;;;;;;-4.32;71.63;100533.06;5071913;28;20030;-21
2022/01/28 02:15:55;;;;;;;60.92;29.27;;;;;;;-3.83;70.37;100511.19;5090149;28;20043;-22
2022/01/28 02:18:22;;;;;;;71.03;30.80;;;;;;;-4.11;72.05;100539.28;5088645;28;20035;-22
2022/01/28 02:20:52;;;;;;;68.78;33.13;;;;;;;-4.39;72.23;100530.06;5089929;28;20023;-21
2022/01/28 02:23:20;;;;;;;81.90;38.60;;;;;;;-3.79;70.51;100517.84;5089801;28;20531;-22
2022/01/28 02:25:45;;;;;;;68.80;31.70;;;;;;;-3.94;71.24;100524.19;5088210;28;20062;-21
2022/01/28 02:28:14;;;;;;;69.25;29.73;;;;;;;-4.20;71.99;100498.31;5088192;28;20028;-21
2022/01/28 02:30:40;;;;;;;64.88;29.35;;;;;;;-3.49;71.07;100519.09;5089895;28;20035;-21
2022/01/28 02:33:15;;;;;;;63.72;28.75;;;;;;;-3.54;70.26;100506.38;5089722;28;20020;-22
2022/01/28 02:35:42;;;;;;;55.17;26.17;;;;;;;-4.14;71.29;100507.44;5089947;28;20032;-21
2022/01/28 02:38:12;;;;;;;50.95;23.58;;;;;;;-4.33;73.30;100502.75;5089306;28;20105;-23
2022/01/28 02:40:39;;;;;;;51.78;24.60;;;;;;;-3.98;73.65;100507.13;5088191;28;20849;-22
2022/01/28 02:45:52;;;;;;;44.33;23.65;;;;;;;-3.49;72.52;100493.00;5077550;28;20727;-22
2022/01/28 02:48:21;;;;;;;54.72;27.02;;;;;;;-3.57;71.56;100484.94;5089486;28;20170;-22
2022/01/28 02:53:24;;;;;;;;;;;;;;;-3.63;72.77;100481.84;5088522;28;20034;-22
2022/01/28 02:55:57;;;;;;;49.90;27.00;;;;;;;-3.34;72.18;100468.34;5088480;28;19912;-22
2022/01/28 02:58:25;;;;;;;57.15;25.95;;;;;;;-3.25;71.71;100475.47;5089441;28;20040;-22
2022/01/28 03:00:51;;;;;;;53.40;26.80;;;;;;;-3.37;71.73;100467.75;5089338;28;20036;-21
2022/01/28 03:03:22;;;;;;;54.85;27.25;;;;;;;-3.31;72.17;100480.31;5087774;28;20270;-22
2022/01/28 03:05:48;;;;;;;60.13;29.55;;;;;;;-2.83;70.59;100485.25;5089081;28;20115;-22
2022/01/28 03:08:14;;;;;;;68.85;32.80;;;;;;;-2.37;68.86;100475.50;5089406;28;20154;-22
2022/01/28 03:10:44;;;;;;;76.28;37.72;;;;;;;-2.25;67.59;100477.09;5071027;28;20084;-22
2022/01/28 03:15:36;;;;;;;66.53;35.30;;;;;;;-2.85;69.16;100477.53;5088938;28;20031;-21
2022/01/28 03:18:18;;;;;;;60.60;31.20;;;;;;;-3.08;70.02;100481.16;5087373;28;20090;-22
2022/01/28 03:23:18;;;;;;;47.72;26.77;;;;;;;-3.05;70.17;100483.50;5088991;28;20133;-22
2022/01/28 03:25:45;;;;;;;58.30;28.23;;;;;;;-2.94;69.54;100478.28;5088297;28;20052;-22
2022/01/28 03:28:12;;;;;;;59.10;27.75;;;;;;;-2.71;68.43;100484.28;5088915;28;20104;-22
2022/01/28 03:30:37;;;;;;;56.95;28.63;;;;;;;-2.58;67.97;100489.34;5088588;28;20028;-21
2022/01/28 03:33:02;;;;;;;63.08;30.58;;;;;;;-2.71;67.81;100484.28;5088923;28;20525;-22
2022/01/28 03:35:31;;;;;;;66.40;32.97;;;;;;;-2.80;68.58;100485.00;5088685;28;20036;-21
2022/01/28 03:38:01;;;;;;;59.60;31.27;;;;;;;-2.89;68.76;100470.91;5070674;28;20032;-22
2022/01/28 03:40:27;;;;;;;59.63;27.83;;;;;;;-3.22;69.62;100457.94;5088404;28;20114;-21
2022/01/28 03:42:53;;;;;;;75.88;41.35;;;;;;;-3.19;69.78;100452.44;5088612;28;20039;-22
2022/01/28 03:45:18;;;;;;;60.42;29.80;;;;;;;-3.58;70.96;100467.63;5086886;28;20048;-22
2022/01/28 03:47:44;;;;;;;49.72;27.40;;;;;;;-3.82;72.13;100471.19;5088377;28;20032;-22
2022/01/28 03:50:10;;;;;;;62.25;29.65;;;;;;;-3.70;71.94;100467.66;5088356;28;20039;-23
2022/01/28 03:52:35;;;;;;;60.63;29.95;;;;;;;-2.97;69.66;100469.84;5087072;28;20036;-22
2022/01/28 03:55:01;;;;;;;62.70;29.17;;;;;;;-3.06;69.50;100468.81;5086843;28;20039;-22
2022/01/28 03:57:27;;;;;;;87.60;36.78;;;;;;;-2.80;69.14;100465.91;5086805;28;20107;-21
2022/01/28 03:59:52;;;;;;;68.72;33.72;;;;;;;-2.71;68.53;100462.56;5088146;28;20059;-21
2022/01/28 04:02:21;;;;;;;65.20;32.15;;;;;;;-2.80;68.46;100452.84;5087662;28;20020;-22
2022/01/28 04:12:49;;;;;;;49.10;25.02;;;;;;;-2.94;65.76;100457.41;5088061;28;20039;-22
2022/01/28 04:15:37;;;;;;;52.38;25.25;;;;;;;-3.07;66.13;100451.47;5088152;28;20032;-22
2022/01/28 04:18:03;;;;;;;59.50;29.98;;;;;;;-3.41;66.93;100417.63;5088018;28;20525;-21
2022/01/28 04:20:30;;;;;;;62.55;32.90;;;;;;;-3.55;68.44;100431.75;5087829;28;20042;-22
2022/01/28 04:22:57;;;;;;;67.30;29.53;;;;;;;-3.39;67.86;100423.56;5087905;28;20040;-22
2022/01/28 04:25:22;;;;;;;73.38;32.67;;;;;;;-3.32;67.65;100440.38;5086276;28;20063;-22
2022/01/28 04:27:47;;;;;;;75.93;35.13;;;;;;;-3.20;68.10;100445.59;5086145;28;20024;-22
2022/01/28 04:30:13;;;;;;;70.93;34.33;;;;;;;-2.87;67.03;100439.47;5086789;28;20032;-22
2022/01/28 04:32:39;;;;;;;103.15;40.00;;;;;;;-3.71;68.85;100434.69;5087805;28;20032;-21
2022/01/28 04:35:06;;;;;;;75.72;33.03;;;;;;;-4.51;71.54;100401.63;5087663;28;20071;-21
2022/01/28 04:37:46;;;;;;;68.13;30.75;;;;;;;-4.74;72.23;100428.50;5087599;28;20039;-21
2022/01/28 04:45:11;;;;;;;107.93;45.97;;;;;;;-3.82;69.33;100424.28;5087760;28;20032;-21
2022/01/28 04:50:19;;;;;;;;;;;;;;;-4.07;70.32;100431.31;5088144;28;20036;-22
2022/01/28 05:08:33;;;;;;;65.32;29.50;;;;;;;-3.56;71.35;100413.59;5087288;28;20058;-22
2022/01/28 05:27:01;;;;;;;137.93;62.13;;;;;;;-2.82;68.68;100395.53;5070899;28;20044;-21
2022/01/28 05:29:27;;;;;;;109.20;51.47;;;;;;;-2.90;68.35;100377.91;5090851;28;20042;-21
2022/01/28 05:31:52;;;;;;;90.82;41.50;;;;;;;-2.95;68.74;100398.31;5090939;28;20031;-21
2022/01/28 05:34:18;;;;;;;79.55;37.92;;;;;;;-2.97;68.81;100371.53;5091275;28;20036;-22
2022/01/28 05:36:44;;;;;;;74.45;38.15;;;;;;;-2.78;68.35;100383.06;5089529;28;20066;-21
2022/01/28 05:39:10;;;;;;;75.18;39.05;;;;;;;-2.78;68.34;100396.13;5091127;28;20040;-22
2022/01/28 05:41:35;;;;;;;101.97;50.78;;;;;;;-2.81;69.07;100404.22;5090752;28;20028;-22
2022/01/28 05:44:02;;;;;;;103.53;47.95;;;;;;;-3.46;70.96;100404.13;5090459;28;20036;-21
2022/01/28 05:46:29;;;;;;;112.55;51.67;;;;;;;-3.80;71.98;100396.31;5090979;28;20031;-22
2022/01/28 05:48:56;;;;;;;154.40;68.25;;;;;;;-3.73;72.49;100405.31;5090846;28;20074;-21
2022/01/28 05:51:21;;;;;;;107.30;50.45;;;;;;;-4.15;74.17;100399.81;5090779;28;20597;-24
2022/01/28 05:53:47;;;;;;;195.45;86.57;;;;;;;-3.39;72.37;100420.09;5090836;28;20032;-21
2022/01/28 05:56:12;;;;;;;103.85;50.50;;;;;;;-3.28;69.77;100392.22;5090767;28;20035;-22
2022/01/28 05:58:38;;;;;;;110.38;53.97;;;;;;;-2.87;69.43;100414.19;5090669;28;20032;-22
2022/01/28 06:01:03;;;;;;;175.07;72.30;;;;;;;-2.51;68.11;100412.16;5090595;28;20542;-22
2022/01/28 06:03:28;;;;;;;155.05;69.18;;;;;;;-2.55;68.40;100410.75;5088989;28;20446;-22
2022/01/28 06:05:54;;;;;;;148.63;67.22;;;;;;;-2.26;67.29;100410.97;5090376;28;20043;-21
2022/01/28 06:08:19;;;;;;;125.03;58.72;;;;;;;-2.06;65.92;100422.38;5090285;28;20032;-22
2022/01/28 06:10:45;;;;;;;124.65;56.72;;;;;;;-2.29;67.08;100413.00;5090285;28;20040;-21
2022/01/28 06:13:11;;;;;;;114.63;56.90;;;;;;;-2.28;67.19;100414.66;5088924;28;20059;-22
2022/01/28 06:15:41;;;;;;;115.18;55.80;;;;;;;-2.23;66.38;100415.94;5090292;28;20065;-22
2022/01/28 06:18:06;;;;;;;96.05;49.63;;;;;;;-2.06;66.98;100417.16;5089968;28;20411;-21
2022/01/28 06:20:32;;;;;;;95.07;48.60;;;;;;;-2.34;67.16;100423.00;5090204;28;20546;-22
2022/01/28 06:22:57;;;;;;;89.45;47.78;;;;;;;-2.34;67.84;100407.34;5090518;28;20105;-21
2022/01/28 06:25:23;;;;;;;107.43;54.28;;;;;;;-2.13;67.49;100394.25;5089185;28;20092;-23
2022/01/28 06:27:48;;;;;;;114.63;56.60;;;;;;;-1.91;67.01;100408.97;5088390;28;20094;-22
2022/01/28 06:30:16;;;;;;;186.05;89.68;;;;;;;-2.18;68.57;100399.88;5089828;28;20055;-21
2022/01/28 06:32:42;;;;;;;174.57;93.10;;;;;;;-1.52;66.90;100415.19;5090027;28;20077;-22
2022/01/28 06:35:08;;;;;;;248.35;163.38;;;;;;;-1.55;66.68;100420.69;5090372;28;20032;-22
2022/01/28 06:37:41;;;;;;;114.95;59.55;;;;;;;-2.24;69.82;100403.00;5089845;28;20020;-22
2022/01/28 06:40:11;;;;;;;90.72;49.15;;;;;;;-2.50;70.00;100408.59;5089497;28;20077;-21
2022/01/28 06:42:36;;;;;;;71.45;37.22;;;;;;;-2.18;70.00;100412.94;5089771;28;20031;-21
2022/01/28 06:45:03;;;;;;;86.88;44.30;;;;;;;-1.81;69.69;100417.69;5089763;28;20032;-21
2022/01/28 06:47:28;;;;;;;113.05;54.28;;;;;;;-1.66;68.43;100434.66;5088367;28;20028;-22
2022/01/28 06:49:54;;;;;;;112.80;53.10;;;;;;;-1.76;68.69;100418.09;5089431;28;20047;-22
2022/01/28 06:52:19;;;;;;;94.15;48.55;;;;;;;-1.76;67.83;100418.09;5089341;28;20028;-21
2022/01/28 06:54:45;;;;;;;86.35;46.08;;;;;;;-1.71;69.86;100436.88;5089459;28;20089;-21
2022/01/28 06:57:10;;;;;;;96.18;47.28;;;;;;;-1.12;68.42;100434.47;5089669;28;20408;-21
2022/01/28 06:59:35;;;;;;;93.10;49.28;;;;;;;-1.60;69.16;100424.66;5089475;28;20027;-21
2022/01/28 07:02:01;;;;;;;78.78;43.20;;;;;;;-1.11;68.66;100433.50;5087741;28;20027;-21
2022/01/28 07:04:26;;;;;;;78.85;45.05;;;;;;;-0.61;68.38;100430.81;5089278;28;20043;-21
2022/01/28 07:06:52;;;;;;;85.57;43.33;;;;;;;-0.91;68.84;100409.00;5089394;28;20503;-22
2022/01/28 07:09:17;;;;;;;56.47;29.08;;;;;;;-0.69;68.12;100426.25;5089090;28;20040;-22
2022/01/28 07:11:43;;;;;;;50.97;25.55;;;;;;;-0.36;66.75;100424.19;5089232;28;20035;-23
2022/01/28 07:14:09;;;;;;;50.15;24.65;;;;;;;0.10;66.62;100434.88;5089051;28;20554;-22
2022/01/28 07:16:35;;;;;;;56.30;26.80;;;;;;;0.24;66.40;100442.28;5087865;28;20024;-21
2022/01/28 07:19:02;;;;;;;57.28;27.27;;;;;;;0.07;65.63;100419.44;5087977;28;20047;-21
2022/01/28 07:21:27;;;;;;;52.75;29.05;;;;;;;0.50;66.36;100441.66;5089099;28;20149;-21
2022/01/28 07:23:53;;;;;;;53.85;28.27;;;;;;;0.73;65.11;100431.59;5088375;28;20040;-21
2022/01/28 07:26:18;;;;;;;61.70;32.38;;;;;;;0.54;65.41;100422.03;5088708;28;20051;-22
2022/01/28 07:28:44;;;;;;;69.35;33.35;;;;;;;0.36;66.44;100416.72;5089048;28;20039;-22
2022/01/28 07:31:10;;;;;;;69.10;35.33;;;;;;;0.57;65.63;100412.09;5088694;28;20032;-22
2022/01/28 07:33:35;;;;;;;154.80;63.75;;;;;;;0.81;65.41;100413.31;5088702;28;20028;-21
2022/01/28 07:36:02;;;;;;;133.98;55.20;;;;;;;1.06;65.79;100408.34;5087470;28;20044;-21
2022/01/28 07:38:28;;;;;;;87.13;47.63;;;;;;;1.31;64.16;100404.13;5088579;28;20024;-21
2022/01/28 07:40:57;;;;;;;64.95;33.60;;;;;;;1.23;64.67;100420.69;5088738;28;20028;-22
2022/01/28 07:43:23;;;;;;;78.82;43.55;;;;;;;0.85;65.50;100413.88;5088304;28;20028;-22
2022/01/28 07:45:48;;;;;;;214.18;137.23;;;;;;;0.91;66.29;100413.28;5088145;28;20492;-22
2022/01/28 07:48:14;;;;;;;56.80;32.83;;;;;;;1.15;64.77;100413.53;5088048;28;20164;-22
2022/01/28 07:50:39;;;;;;;73.72;31.17;;;;;;;0.99;65.11;100416.00;5088233;28;20047;-21
2022/01/28 07:53:05;;;;;;;52.67;27.35;;;;;;;0.94;65.56;100423.47;5088288;28;20028;-22
2022/01/28 07:55:31;;;;;;;50.38;25.73;;;;;;;1.13;66.05;100425.16;5088421;28;20032;-22
2022/01/28 07:57:56;;;;;;;46.28;23.13;;;;;;;1.10;65.58;100397.38;5088062;28;20024;-21
2022/01/28 08:00:26;;;;;;;79.53;35.38;;;;;;;1.28;65.19;100428.09;5088267;28;20035;-22
2022/01/28 08:02:52;;;;;;;113.70;36.63;;;;;;;0.91;65.49;100423.78;5088047;28;20032;-23
2022/01/28 08:05:17;;;;;;;72.30;27.95;;;;;;;0.91;65.96;100423.78;5088149;28;20078;-23
2022/01/28 08:07:43;;;;;;;32.78;17.40;;;;;;;0.79;66.00;100423.97;5087858;28;20499;-23
2022/01/28 08:10:09;;;;;;;88.70;40.80;;;;;;;0.49;69.02;100409.34;5087869;28;20111;-21
2022/01/28 08:12:48;;;;;;;44.42;22.52;;;;;;;0.33;69.16;100409.97;5088161;28;20786;-21
2022/01/28 08:15:14;;;;;;;44.58;22.92;;;;;;;0.35;69.99;100429.00;5087932;28;20042;-21
2022/01/28 08:17:40;;;;;;;47.75;24.13;;;;;;;0.50;68.34;100425.91;5086630;28;20490;-21
2022/01/28 08:20:06;;;;;;;42.15;23.70;;;;;;;0.26;69.25;100393.13;5087496;28;20036;-22
2022/01/28 08:22:31;;;;;;;45.75;22.55;;;;;;;0.54;68.68;100387.91;5087669;28;20020;-21
2022/01/28 08:24:57;;;;;;;83.28;36.63;;;;;;;1.04;67.00;100412.91;5087436;28;20530;-22
2022/01/28 08:27:22;;;;;;;70.55;33.10;;;;;;;1.26;65.39;100411.66;5087888;28;20067;-21
2022/01/28 08:29:48;;;;;;;63.03;30.10;;;;;;;1.15;66.51;100405.66;5087462;28;20032;-21
2022/01/28 08:32:13;;;;;;;68.57;35.35;;;;;;;1.83;65.53;100406.06;5087534;28;20031;-21
2022/01/28 08:34:39;;;;;;;74.63;36.75;;;;;;;1.97;64.98;100387.91;5086262;28;20028;-22
2022/01/28 08:37:04;;;;;;;51.28;26.63;;;;;;;2.41;62.36;100414.16;5086471;28;20457;-21
2022/01/28 08:39:34;;;;;;;37.25;18.88;;;;;;;2.46;61.27;100386.53;5087597;28;20040;-22
2022/01/28 08:42:00;;;;;;;41.78;21.73;;;;;;;3.00;59.61;100414.19;5087412;28;20028;-21
2022/01/28 08:44:26;;;;;;;77.32;40.47;;;;;;;3.39;58.46;100391.66;5087595;28;20031;-21
2022/01/28 08:46:51;;;;;;;40.30;21.45;;;;;;;3.43;56.04;100398.25;5087928;28;20036;-23
2022/01/28 08:49:17;;;;;;;29.30;15.55;;;;;;;3.46;56.82;100397.13;5091663;28;20491;-21
2022/01/28 08:51:42;;;;;;;78.25;36.60;;;;;;;3.54;56.84;100399.78;5091752;28;20674;-22
2022/01/28 08:54:08;;;;;;;45.58;26.63;;;;;;;3.79;55.92;100409.31;5091749;28;20027;-22
2022/01/28 08:56:33;;;;;;;59.97;37.13;;;;;;;3.74;55.20;100405.50;5091559;28;20043;-21
2022/01/28 08:58:58;;;;;;;26.70;15.93;;;;;;;3.84;54.98;100392.97;5091382;28;20032;-21
2022/01/28 09:01:24;;;;;;;28.27;14.18;;;;;;;3.70;55.65;100383.94;5091383;28;20028;-21
2022/01/28 09:03:51;;;;;;;27.88;14.10;;;;;;;3.98;54.36;100380.91;5091002;28;20487;-21
2022/01/28 09:06:17;;;;;;;28.90;15.10;;;;;;;4.14;54.62;100364.22;5090188;28;20044;-22
2022/01/28 09:08:44;;;;;;;27.67;14.65;;;;;;;4.36;53.37;100381.16;5085537;28;20032;-21
2022/01/28 09:12:30;;;;;;;28.48;14.20;;;;;;;4.34;53.20;100385.78;5071035;28;20029;-21
2022/01/28 09:14:04;;;;;;;24.98;14.52;;;;;;;4.78;52.38;100387.91;5061219;28;20102;-21
2022/01/28 09:16:29;;;;;;;24.80;14.35;;;;;;;4.58;51.68;100382.22;5070664;28;20036;-21
2022/01/28 09:18:55;;;;;;;26.00;13.65;;;;;;;4.65;51.60;100374.44;5070728;28;20036;-21
2022/01/28 09:21:20;;;;;;;29.13;17.75;;;;;;;4.80;52.46;100364.75;5071052;28;20023;-21
2022/01/28 09:23:49;;;;;;;32.13;19.10;;;;;;;5.04;50.14;100361.16;5070547;28;20039;-21
2022/01/28 09:26:14;;;;;;;46.28;35.88;;;;;;;5.46;49.37;100359.88;5070470;28;20049;-21
2022/01/28 09:28:41;;;;;;;33.30;21.98;;;;;;;5.68;48.54;100357.34;5070956;28;20036;-22
2022/01/28 09:31:06;;;;;;;28.98;14.98;;;;;;;5.73;50.57;100344.41;5068854;28;20032;-22
2022/01/28 09:33:31;;;;;;;28.08;15.80;;;;;;;5.64;49.69;100325.97;5070814;28;20032;-21
2022/01/28 09:35:57;;;;;;;35.22;29.60;;;;;;;6.04;48.55;100347.75;5070167;28;20032;-22
2022/01/28 09:38:22;;;;;;;36.67;25.58;;;;;;;6.14;48.54;100334.25;5070583;28;20568;-21
2022/01/28 09:40:48;;;;;;;48.38;24.25;;;;;;;6.24;48.85;100328.69;5070479;28;20036;-21
2022/01/28 09:43:14;;;;;;;33.55;24.60;;;;;;;5.92;48.18;100309.47;5070366;28;20028;-21
2022/01/28 09:45:40;;;;;;;31.95;24.55;;;;;;;5.95;47.30;100317.09;5070016;28;20040;-21
2022/01/28 09:48:05;;;;;;;29.38;19.95;;;;;;;5.82;47.92;100300.97;5070295;28;20032;-22
2022/01/28 09:50:31;;;;;;;41.08;27.25;;;;;;;5.77;49.79;100303.34;5070217;28;20385;-22
2022/01/28 09:52:57;;;;;;;42.70;27.60;;;;;;;5.63;49.67;100308.44;5069070;28;20523;-21
2022/01/28 09:55:24;;;;;;;46.72;28.10;;;;;;;5.43;50.36;100273.78;5070236;28;20037;-21
2022/01/28 09:58:02;;;;;;;31.77;18.30;;;;;;;5.43;50.31;100308.16;5069915;28;20111;-22
2022/01/28 10:00:28;;;;;;;36.53;22.75;;;;;;;5.61;51.82;100299.03;5069543;28;20531;-21
2022/01/28 10:02:53;;;;;;;31.60;17.27;;;;;;;6.07;51.74;100303.38;5070096;28;20071;-22
2022/01/28 10:05:21;;;;;;;39.22;19.25;;;;;;;6.18;49.13;100300.28;5070169;28;20052;-22
2022/01/28 10:08:03;;;;;;;31.17;19.63;;;;;;;5.88;50.81;100289.66;5069550;28;20419;-21
2022/01/28 10:10:46;;;;;;;32.78;18.85;;;;;;;6.13;49.84;100284.94;5069819;28;20059;-22
2022/01/28 10:13:32;;;;;;;34.08;18.83;;;;;;;6.81;47.98;100290.81;5069921;28;20028;-21
2022/01/28 10:16:26;;;;;;;30.75;17.10;;;;;;;6.85;47.64;100272.69;5068246;28;20033;-21
2022/01/28 10:18:59;;;;;;;38.90;20.58;;;;;;;6.21;46.78;100262.81;5065213;28;20032;-21
2022/01/28 10:21:25;;;;;;;53.35;28.80;;;;;;;6.29;48.32;100281.25;5069637;28;20061;-21
2022/01/28 10:24:21;;;;;;;81.97;41.47;;;;;;;6.82;47.16;100292.47;5069394;28;20403;-21
2022/01/28 10:27:05;;;;;;;112.57;59.80;;;;;;;6.63;46.64;100272.69;5065380;28;20052;-21
2022/01/28 10:29:33;;;;;;;50.75;29.73;;;;;;;6.28;47.70;100234.59;5069044;28;20060;-20
2022/01/28 10:31:59;;;;;;;54.72;29.48;;;;;;;6.69;48.12;100272.94;5069431;28;20071;-22
2022/01/28 10:34:26;;;;;;;181.30;105.35;;;;;;;7.00;46.53;100268.13;5069152;28;20021;-21
2022/01/28 10:37:19;;;;;;;33.75;19.70;;;;;;;7.24;45.67;100253.66;5069142;28;20450;-21
2022/01/28 10:39:52;;;;;;;96.78;50.40;;;;;;;7.09;46.12;100250.28;5068820;28;20059;-21
2022/01/28 10:42:51;;;;;;;126.43;53.08;;;;;;;7.59;45.78;100259.00;5069290;28;20115;-21
2022/01/28 10:45:19;;;;;;;43.00;26.42;;;;;;;8.32;44.77;100257.75;5068000;28;20085;-20
2022/01/28 10:47:52;;;;;;;57.67;26.25;;;;;;;8.41;42.82;100261.88;5068774;28;20531;-21
2022/01/28 10:50:23;;;;;;;33.10;16.58;;;;;;;7.50;44.05;100256.69;5068739;28;20408;-22
2022/01/28 10:53:07;;;;;;;368.75;181.88;;;;;;;6.93;44.48;100247.91;5069122;28;20028;-21
2022/01/28 10:55:35;;;;;;;428.58;210.93;;;;;;;6.80;46.40;100245.94;5068898;28;20487;-21
2022/01/28 10:58:17;;;;;;;259.83;148.30;;;;;;;7.03;45.34;100251.06;5068452;28;20044;-22
2022/01/28 11:00:44;;;;;;;103.97;78.05;;;;;;;6.70;46.00;100217.09;5068679;28;20036;-22
2022/01/28 11:03:11;;;;;;;39.72;24.73;;;;;;;7.41;45.46;100237.44;5068923;28;20047;-21
2022/01/28 11:05:36;;;;;;;66.90;50.47;;;;;;;8.42;44.31;100245.75;5067592;28;20028;-21
2022/01/28 11:08:03;;;;;;;40.50;24.67;;;;;;;9.23;42.32;100231.50;5068425;28;20039;-21
2022/01/28 11:10:29;;;;;;;31.25;18.38;;;;;;;9.72;41.24;100247.19;5068522;28;20025;-22
2022/01/28 11:12:58;;;;;;;29.73;18.10;;;;;;;10.23;40.01;100225.06;5068597;28;20531;-21
2022/01/28 11:15:24;;;;;;;59.83;32.45;;;;;;;10.00;39.95;100221.06;5068953;28;20078;-21
2022/01/28 11:17:49;;;;;;;27.42;16.63;;;;;;;8.92;42.27;100232.13;5068627;28;20032;-21
2022/01/28 11:20:19;;;;;;;30.67;18.08;;;;;;;8.68;43.25;100224.72;5050493;28;20025;-21
2022/01/28 11:23:19;;;;;;;29.73;16.80;;;;;;;8.79;43.63;100240.91;5067075;28;20071;-21
2022/01/28 11:26:22;;;;;;;32.28;18.20;;;;;;;8.96;42.43;100241.31;5066651;28;20136;-21
2022/01/28 11:28:50;;;;;;;26.23;16.02;;;;;;;9.01;42.22;100222.09;5068101;28;20083;-21
2022/01/28 11:31:36;;;;;;;26.92;16.02;;;;;;;8.85;42.80;100216.16;5068156;28;20032;-21
2022/01/28 11:34:01;;;;;;;34.67;18.75;;;;;;;8.78;43.04;100220.63;5066408;28;20107;-21
2022/01/28 11:36:31;;;;;;;29.05;17.52;;;;;;;9.57;41.26;100200.31;5049867;28;20039;-21
2022/01/28 11:38:56;;;;;;;26.52;15.18;;;;;;;9.93;40.91;100212.31;5067969;28;20040;-21
2022/01/28 11:41:24;;;;;;;25.63;14.98;;;;;;;9.65;40.42;100212.59;5050248;28;20029;-21
2022/01/28 11:43:56;;;;;;;27.40;14.95;;;;;;;9.40;42.87;100196.50;5067836;28;20028;-21
2022/01/28 11:46:30;;;;;;;22.02;13.98;;;;;;;9.33;42.58;100198.31;5067960;28;20044;-21
2022/01/28 11:48:56;;;;;;;25.48;15.38;;;;;;;9.40;42.78;100209.78;5067943;28;20392;-21
2022/01/28 11:51:37;;;;;;;21.48;13.23;;;;;;;9.55;41.50;100205.03;5067861;28;20529;-21
2022/01/28 11:54:04;;;;;;;24.17;15.65;;;;;;;9.02;43.11;100199.78;5067585;28;20500;-30
2022/01/28 11:56:29;;;;;;;26.05;15.52;;;;;;;8.96;44.69;100197.94;5067662;28;20421;-21
2022/01/28 11:59:04;;;;;;;24.52;14.70;;;;;;;8.78;44.22;100206.53;5066168;28;20111;-21
2022/01/28 12:01:36;;;;;;;44.78;19.85;;;;;;;8.50;45.27;100204.88;5067810;28;20036;-23
2022/01/28 12:04:23;;;;;;;33.03;18.92;;;;;;;8.24;47.08;100197.63;5067239;28;20037;-21
2022/01/28 12:07:13;;;;;;;36.45;21.38;;;;;;;7.87;45.83;100194.44;5067827;28;20028;-21
2022/01/28 12:09:40;;;;;;;26.45;16.67;;;;;;;8.14;47.34;100183.91;5066688;28;20021;-21
2022/01/28 12:12:12;;;;;;;26.38;15.65;;;;;;;8.18;47.39;100175.31;5067346;28;20024;-22
2022/01/28 12:14:50;;;;;;;123.47;52.92;;;;;;;8.13;47.71;100187.56;5067664;28;20032;-21
2022/01/28 12:17:36;;;;;;;29.23;18.77;;;;;;;8.36;46.97;100181.91;5067487;28;20115;-21
2022/01/28 12:20:37;;;;;;;34.42;20.20;;;;;;;8.43;47.01;100175.59;5067150;28;20051;-21
2022/01/28 12:23:08;;;;;;;27.35;16.73;;;;;;;8.45;46.57;100170.09;5066844;28;20178;-21
2022/01/28 12:25:37;;;;;;;68.47;44.30;;;;;;;8.66;46.53;100166.44;5067046;28;20049;-21
2022/01/28 12:28:17;;;;;;;;;;;;;;;8.68;45.72;100167.03;5067235;28;20048;-22
2022/01/28 12:30:47;;;;;;;83.47;45.45;;;;;;;8.52;45.70;100151.50;5067299;28;19912;-21
2022/01/28 12:33:13;;;;;;;66.32;32.75;;;;;;;9.13;44.71;100153.94;5067554;28;20031;-21
2022/01/28 12:35:40;;;;;;;29.92;15.30;;;;;;;9.84;41.73;100155.75;5066009;28;20031;-21
2022/01/28 12:38:06;;;;;;;22.10;11.32;;;;;;;9.73;41.02;100145.78;5067010;28;20024;-22
2022/01/28 12:40:41;;;;;;;14.57;7.90;;;;;;;9.99;40.71;100160.84;5067070;28;20036;-21
2022/01/28 12:43:07;;;;;;;15.93;7.72;;;;;;;9.98;40.26;100121.91;5067237;28;20416;-23
2022/01/28 12:45:33;;;;;;;8.40;3.75;;;;;;;10.13;38.07;100116.25;5049779;28;20028;-21
2022/01/28 12:47:59;;;;;;;9.80;5.28;;;;;;;10.49;37.33;100132.69;5066851;28;20035;-20
2022/01/28 12:50:25;;;;;;;9.02;4.30;;;;;;;10.77;37.39;100143.75;5067194;28;20031;-21
2022/01/28 12:52:50;;;;;;;16.40;7.65;;;;;;;10.72;36.75;100132.91;5066944;28;20476;-20
2022/01/28 12:55:16;;;;;;;11.70;5.82;;;;;;;10.78;36.50;100121.34;5066885;28;20066;-21